Terminal Aerodrome Forecast
Issued by NWS

Home | Current Version | Previous Version | Text Only | Print | Product List | Glossary On
Versions: 1 2 3 4 5 6 7 8 9 10 11 12 13 14
000
FTUS46 KMTR 010527
TAFSJC
TAF
KSJC 010527Z 0106/0206 30008KT P6SM SKC
     FM011000 15004KT P6SM FEW015
     FM011800 32011KT P6SM SKC
     FM020300 30007KT P6SM SKC=

USA.gov is the U.S. government's official web portal to all federal, state and local government web resources and services.